createdAt,value
2018-06-12T00:00:26.811Z,15.30
2018-06-12T00:02:55.934Z,15.20
2018-06-12T00:05:25.022Z,15.10
2018-06-12T00:07:54.166Z,15.10
2018-06-12T00:10:23.316Z,15.20
2018-06-12T00:12:52.513Z,15.30
2018-06-12T00:15:21.670Z,15.20
2018-06-12T00:17:53.845Z,15.20
2018-06-12T00:20:22.965Z,15.10
2018-06-12T00:22:52.166Z,15.20
2018-06-12T00:25:21.323Z,15.20
2018-06-12T00:27:50.552Z,15.10
2018-06-12T00:30:19.689Z,15.10
2018-06-12T00:32:48.797Z,15.10
2018-06-12T00:35:17.917Z,15.10
2018-06-12T00:37:47.048Z,15.10
2018-06-12T00:40:16.211Z,15.00
2018-06-12T00:42:45.307Z,15.00
2018-06-12T00:45:14.441Z,15.10
2018-06-12T00:47:43.485Z,15.00
2018-06-12T00:50:12.585Z,14.90
2018-06-12T00:52:41.810Z,15.00
2018-06-12T00:55:10.924Z,15.00
2018-06-12T00:57:40.023Z,15.00
2018-06-12T01:00:09.124Z,15.00
2018-06-12T01:02:38.239Z,15.00
2018-06-12T01:05:07.420Z,14.90
2018-06-12T01:07:36.544Z,15.00
2018-06-12T01:10:05.759Z,15.00
2018-06-12T01:12:34.876Z,15.00
2018-06-12T01:15:03.994Z,15.00
2018-06-12T01:17:33.110Z,15.00
2018-06-12T01:20:02.327Z,15.00
2018-06-12T01:22:31.584Z,15.00
2018-06-12T01:25:01.509Z,15.00
2018-06-12T01:27:37.116Z,15.00
2018-06-12T01:30:06.320Z,15.10
2018-06-12T01:32:35.430Z,15.00
2018-06-12T01:35:04.645Z,15.00
2018-06-12T01:37:33.790Z,15.00
2018-06-12T01:40:03.066Z,15.10
2018-06-12T01:42:32.177Z,15.20
2018-06-12T01:45:01.292Z,15.20
2018-06-12T01:47:30.398Z,15.10
2018-06-12T01:49:59.543Z,15.20
2018-06-12T01:52:28.651Z,15.20
2018-06-12T01:54:57.737Z,15.10
2018-06-12T01:57:26.829Z,15.10
2018-06-12T01:59:55.933Z,15.10
2018-06-12T02:02:25.039Z,15.10
2018-06-12T02:04:54.191Z,15.10
2018-06-12T02:07:23.305Z,15.20
2018-06-12T02:09:52.406Z,15.20
2018-06-12T02:12:21.540Z,15.20
2018-06-12T02:14:50.598Z,15.20
2018-06-12T02:17:19.685Z,15.10
2018-06-12T02:19:48.772Z,15.00
2018-06-12T02:22:17.870Z,15.10
2018-06-12T02:24:47.022Z,15.10
2018-06-12T02:27:16.143Z,15.10
2018-06-12T02:29:45.264Z,15.10
2018-06-12T02:32:14.400Z,15.10
2018-06-12T02:34:43.498Z,15.00
2018-06-12T02:37:12.578Z,15.00
2018-06-12T02:39:41.989Z,14.90
2018-06-12T02:42:11.114Z,14.90
2018-06-12T02:44:40.217Z,14.90
2018-06-12T02:47:09.251Z,14.90
2018-06-12T02:49:38.314Z,14.90
2018-06-12T02:52:07.424Z,14.90
2018-06-12T02:54:36.494Z,14.90
2018-06-12T02:57:05.622Z,15.00
2018-06-12T02:59:34.693Z,15.00
2018-06-12T03:02:04.004Z,14.90
2018-06-12T03:04:33.100Z,14.90
2018-06-12T03:07:02.179Z,14.90
2018-06-12T03:09:31.300Z,14.90
2018-06-12T03:12:00.393Z,14.90
2018-06-12T03:14:29.461Z,14.90
2018-06-12T03:16:58.549Z,14.90
2018-06-12T03:19:27.667Z,14.90
2018-06-12T03:21:56.800Z,14.90
2018-06-12T03:24:25.913Z,14.90
2018-06-12T03:26:55.011Z,14.90
2018-06-12T03:29:24.187Z,15.00
2018-06-12T03:31:53.313Z,15.10
2018-06-12T03:34:22.456Z,15.10
2018-06-12T03:36:51.540Z,15.00
2018-06-12T03:39:20.657Z,15.00
2018-06-12T03:41:49.759Z,15.00
2018-06-12T03:44:19.030Z,15.00
2018-06-12T03:46:48.094Z,15.00
2018-06-12T03:49:17.163Z,15.00
2018-06-12T03:51:46.252Z,15.10
2018-06-12T03:54:15.346Z,15.10
2018-06-12T03:56:44.417Z,15.10
2018-06-12T03:59:13.504Z,15.20
2018-06-12T04:01:42.594Z,15.20
2018-06-12T04:04:11.747Z,15.20
2018-06-12T04:06:40.884Z,15.30
2018-06-12T04:09:10.088Z,15.20
2018-06-12T04:11:39.760Z,15.30
2018-06-12T04:14:08.856Z,15.30
2018-06-12T04:16:37.939Z,15.30
2018-06-12T04:19:07.953Z,15.30
2018-06-12T04:21:37.229Z,15.30
2018-06-12T04:24:06.362Z,15.30
2018-06-12T04:26:35.558Z,15.30
2018-06-12T04:29:04.733Z,15.20
2018-06-12T04:31:33.868Z,15.20
2018-06-12T04:34:03.096Z,15.20
2018-06-12T04:36:32.311Z,15.30
2018-06-12T04:39:01.443Z,15.40
2018-06-12T04:41:30.539Z,15.20
2018-06-12T04:43:59.686Z,15.30
2018-06-12T04:46:28.781Z,15.40
2018-06-12T04:48:57.944Z,15.40
2018-06-12T04:51:27.058Z,15.40
2018-06-12T04:53:56.184Z,15.40
2018-06-12T04:56:25.489Z,15.40
2018-06-12T04:58:54.578Z,15.40
2018-06-12T05:01:23.670Z,15.40
2018-06-12T05:03:52.799Z,15.50
2018-06-12T05:06:21.874Z,15.60
2018-06-12T05:08:51.005Z,15.60
2018-06-12T05:11:20.177Z,15.50
2018-06-12T05:13:49.280Z,15.60
2018-06-12T05:16:24.009Z,15.60
2018-06-12T05:18:53.086Z,15.50
2018-06-12T05:21:22.325Z,15.70
2018-06-12T05:23:51.466Z,15.70
2018-06-12T05:26:20.565Z,15.80
2018-06-12T05:28:49.671Z,15.60
2018-06-12T05:31:18.757Z,15.70
2018-06-12T05:33:48.154Z,15.70
2018-06-12T05:36:17.338Z,15.70
2018-06-12T05:38:46.606Z,15.80
2018-06-12T05:41:15.747Z,15.90
2018-06-12T05:43:44.868Z,15.90
2018-06-12T05:46:14.165Z,15.90
2018-06-12T05:48:43.421Z,15.90
2018-06-12T05:51:12.602Z,15.90
2018-06-12T05:53:41.789Z,16.00
2018-06-12T05:56:10.899Z,15.90
2018-06-12T06:01:08.972Z,15.80
2018-06-12T06:03:38.086Z,15.80
2018-06-12T06:06:07.303Z,16.00
2018-06-12T06:08:36.535Z,16.10
2018-06-12T06:11:05.634Z,16.00
2018-06-12T06:13:34.746Z,15.80
2018-06-12T06:16:03.849Z,15.90
2018-06-12T06:18:33.167Z,16.10
2018-06-12T06:21:02.266Z,16.30
2018-06-12T06:23:31.361Z,16.20
2018-06-12T06:26:00.593Z,16.30
2018-06-12T06:28:29.741Z,16.40
2018-06-12T06:30:58.870Z,16.50
2018-06-12T06:33:28.031Z,16.60
2018-06-12T06:35:57.148Z,16.90
2018-06-12T06:38:26.357Z,16.90
2018-06-12T06:40:55.604Z,16.70
2018-06-12T06:43:24.860Z,16.40
2018-06-12T06:45:54.019Z,16.30
2018-06-12T06:48:23.227Z,16.40
2018-06-12T06:50:52.444Z,16.10
2018-06-12T06:53:21.583Z,16.00
2018-06-12T06:55:50.896Z,16.10
2018-06-12T06:58:20.096Z,16.20
2018-06-12T07:00:49.225Z,16.20
2018-06-12T07:03:18.699Z,16.20
2018-06-12T07:05:47.835Z,16.20
2018-06-12T07:08:17.111Z,16.30
2018-06-12T07:10:46.324Z,16.30
2018-06-12T07:13:15.442Z,16.30
2018-06-12T07:15:45.143Z,16.30
2018-06-12T07:18:14.987Z,16.40
2018-06-12T07:21:23.901Z,16.30
2018-06-12T07:23:53.029Z,16.30
2018-06-12T07:26:22.282Z,16.30
2018-06-12T07:28:51.624Z,16.30
2018-06-12T07:31:20.743Z,16.10
2018-06-12T07:33:49.974Z,16.20
2018-06-12T07:36:19.257Z,16.10
2018-06-12T07:38:48.343Z,16.10
2018-06-12T07:41:17.553Z,16.00
2018-06-12T07:43:46.751Z,16.10
2018-06-12T07:46:15.848Z,16.20
2018-06-12T07:48:45.002Z,16.30
2018-06-12T07:51:14.248Z,16.30
2018-06-12T07:53:43.950Z,16.20
2018-06-12T07:56:13.068Z,16.40
2018-06-12T07:58:42.408Z,16.50
2018-06-12T08:01:11.755Z,16.40
2018-06-12T08:03:40.915Z,16.30
2018-06-12T08:06:10.140Z,16.30
2018-06-12T08:08:39.437Z,16.30
2018-06-12T08:11:08.726Z,16.40
2018-06-12T08:13:37.851Z,16.50
2018-06-12T08:16:07.411Z,16.40
2018-06-12T08:18:36.556Z,16.60
2018-06-12T08:21:05.949Z,16.60
2018-06-12T08:23:37.487Z,16.60
2018-06-12T08:26:07.202Z,16.60
2018-06-12T08:28:36.476Z,16.80
2018-06-12T08:31:05.658Z,16.90
2018-06-12T08:33:35.011Z,16.90
2018-06-12T08:36:04.100Z,16.80
2018-06-12T08:38:33.191Z,16.60
2018-06-12T08:41:02.850Z,16.60
2018-06-12T08:43:32.068Z,16.70
2018-06-12T08:46:01.302Z,16.80
2018-06-12T08:48:30.373Z,16.80
2018-06-12T08:50:59.575Z,16.70
2018-06-12T08:53:28.948Z,16.80
2018-06-12T08:55:58.060Z,16.60
2018-06-12T08:58:27.312Z,16.60
2018-06-12T09:00:56.447Z,16.70
2018-06-12T09:03:26.345Z,16.80
2018-06-12T09:05:55.457Z,16.90
2018-06-12T09:08:24.657Z,16.90
2018-06-12T09:10:53.801Z,16.90
2018-06-12T09:13:22.964Z,16.90
2018-06-12T09:15:52.187Z,16.90
2018-06-12T09:18:21.326Z,16.80
2018-06-12T09:20:50.459Z,16.90
2018-06-12T09:23:19.801Z,16.80
2018-06-12T09:25:48.932Z,16.80
2018-06-12T09:28:18.104Z,16.80
2018-06-12T09:30:47.232Z,16.80
2018-06-12T09:33:16.555Z,16.80
2018-06-12T09:35:46.400Z,17.00
2018-06-12T09:38:15.521Z,17.00
2018-06-12T09:40:44.676Z,17.10
2018-06-12T09:43:13.906Z,17.00
2018-06-12T09:45:43.128Z,16.90
2018-06-12T09:48:12.476Z,16.80
2018-06-12T09:50:41.616Z,16.90
2018-06-12T09:53:10.725Z,16.90
2018-06-12T09:55:40.305Z,17.00
2018-06-12T09:58:09.640Z,17.00
2018-06-12T10:00:44.081Z,17.00
2018-06-12T10:03:13.228Z,17.10
2018-06-12T10:05:42.318Z,17.30
2018-06-12T10:08:11.408Z,17.40
2018-06-12T10:10:40.539Z,17.40
2018-06-12T10:13:09.792Z,17.40
2018-06-12T10:15:38.899Z,17.60
2018-06-12T10:18:08.323Z,17.70
2018-06-12T10:20:37.557Z,17.80
2018-06-12T10:23:06.783Z,17.90
2018-06-12T10:25:36.068Z,17.80
2018-06-12T10:28:07.119Z,17.80
2018-06-12T10:30:36.430Z,17.60
2018-06-12T10:33:05.805Z,17.70
2018-06-12T10:35:35.583Z,17.60
2018-06-12T10:38:04.955Z,17.70
2018-06-12T10:40:34.278Z,17.70
2018-06-12T10:43:03.411Z,17.70
2018-06-12T10:45:33.204Z,17.60
2018-06-12T10:48:02.321Z,17.60
2018-06-12T10:50:31.847Z,17.70
2018-06-12T10:53:01.072Z,17.60
2018-06-12T10:55:30.363Z,17.60
2018-06-12T10:57:59.568Z,17.50
2018-06-12T11:00:28.686Z,17.20
2018-06-12T11:02:57.895Z,17.20
2018-06-12T11:05:27.020Z,17.20
2018-06-12T11:07:56.121Z,17.30
2018-06-12T11:10:25.218Z,17.40
2018-06-12T11:12:54.308Z,17.60
2018-06-12T11:17:54.588Z,17.60
2018-06-12T11:20:24.966Z,17.80
2018-06-12T11:25:25.195Z,17.60
2018-06-12T11:27:54.393Z,17.60
2018-06-12T11:30:30.123Z,17.70
2018-06-12T11:32:59.291Z,17.80
2018-06-12T11:35:28.672Z,18.00
2018-06-12T11:37:57.789Z,18.10
2018-06-12T11:40:28.554Z,18.00
2018-06-12T11:42:57.712Z,17.80
2018-06-12T11:45:27.006Z,17.80
2018-06-12T11:47:56.993Z,17.90
2018-06-12T11:50:26.397Z,18.00
2018-06-12T11:52:55.767Z,18.10
2018-06-12T11:55:24.978Z,17.90
2018-06-12T11:57:54.200Z,18.00
2018-06-12T12:00:23.416Z,17.90
2018-06-12T12:02:53.025Z,17.80
2018-06-12T12:05:22.286Z,17.80
2018-06-12T12:07:51.619Z,18.20
2018-06-12T12:10:20.719Z,18.50
2018-06-12T12:12:49.967Z,18.50
2018-06-12T12:15:20.123Z,18.60
2018-06-12T12:17:49.276Z,18.50
2018-06-12T12:20:18.516Z,18.40
2018-06-12T12:22:47.778Z,18.20
2018-06-12T12:25:17.109Z,17.80
2018-06-12T12:27:47.440Z,17.40
2018-06-12T12:30:16.581Z,17.40
2018-06-12T12:32:46.525Z,17.30
2018-06-12T12:35:15.635Z,17.30
2018-06-12T12:37:44.745Z,17.50
2018-06-12T12:40:14.059Z,17.60
2018-06-12T12:42:43.293Z,17.70
2018-06-12T12:45:12.417Z,17.60
2018-06-12T12:47:41.592Z,17.50
2018-06-12T12:50:11.230Z,18.00
2018-06-12T12:52:40.360Z,18.30
2018-06-12T12:55:10.238Z,18.30
2018-06-12T12:57:39.440Z,18.40
2018-06-12T13:00:08.658Z,18.60
2018-06-12T13:02:37.776Z,18.60
2018-06-12T13:05:07.138Z,18.60
2018-06-12T13:07:36.317Z,18.50
2018-06-12T13:10:05.696Z,18.20
2018-06-12T13:12:34.860Z,18.10
2018-06-12T13:15:03.958Z,18.10
2018-06-12T13:17:33.439Z,17.90
2018-06-12T13:20:02.661Z,17.70
2018-06-12T13:22:32.012Z,17.50
2018-06-12T13:25:01.197Z,17.70
2018-06-12T13:27:31.405Z,17.70
2018-06-12T13:30:02.365Z,17.60
2018-06-12T13:32:32.628Z,17.60
2018-06-12T13:35:02.652Z,17.40
2018-06-12T13:37:32.771Z,17.40
2018-06-12T13:40:01.933Z,17.40
2018-06-12T13:42:31.390Z,17.60
2018-06-12T13:45:00.677Z,17.80
2018-06-12T13:47:31.078Z,17.90
2018-06-12T13:50:01.156Z,17.70
2018-06-12T13:52:30.513Z,17.80
2018-06-12T13:54:59.956Z,17.80
2018-06-12T13:57:29.157Z,17.90
2018-06-12T13:59:58.369Z,17.90
2018-06-12T14:02:27.504Z,18.10
2018-06-12T14:04:56.872Z,18.10
2018-06-12T14:07:26.612Z,18.20
2018-06-12T14:09:55.762Z,18.10
2018-06-12T14:12:25.374Z,18.10
2018-06-12T14:14:54.517Z,18.10
2018-06-12T14:17:23.605Z,18.00
2018-06-12T14:19:52.768Z,17.90
2018-06-12T14:22:21.883Z,17.90
2018-06-12T14:24:51.015Z,17.80
2018-06-12T14:27:21.628Z,17.80
2018-06-12T14:29:50.940Z,17.70
2018-06-12T14:32:20.093Z,17.60
2018-06-12T14:34:49.209Z,17.40
2018-06-12T14:37:18.412Z,17.30
2018-06-12T14:39:47.508Z,17.30
2018-06-12T14:42:34.458Z,17.30
2018-06-12T14:45:03.638Z,17.40
2018-06-12T14:47:32.845Z,17.40
2018-06-12T14:50:02.050Z,17.60
2018-06-12T14:52:31.357Z,17.60
2018-06-12T14:55:00.508Z,17.60
2018-06-12T14:57:29.738Z,17.60
2018-06-12T14:59:58.863Z,17.50
2018-06-12T15:02:28.071Z,17.30
2018-06-12T15:04:57.278Z,17.30
2018-06-12T15:07:26.436Z,17.30
2018-06-12T15:09:55.620Z,17.40
2018-06-12T15:12:24.807Z,17.40
2018-06-12T15:14:54.067Z,17.40
2018-06-12T15:17:23.264Z,17.60
2018-06-12T15:19:52.411Z,17.50
2018-06-12T15:22:21.592Z,17.50
2018-06-12T15:24:50.791Z,17.50
2018-06-12T15:27:19.918Z,17.50
2018-06-12T15:29:49.106Z,17.50
2018-06-12T15:32:18.747Z,17.70
2018-06-12T15:34:47.896Z,17.90
2018-06-12T15:37:17.604Z,17.80
2018-06-12T15:39:46.703Z,17.70
2018-06-12T15:42:16.005Z,17.80
2018-06-12T15:44:45.325Z,17.80
2018-06-12T15:47:14.653Z,17.80
2018-06-12T15:49:43.817Z,17.90
2018-06-12T15:52:12.941Z,17.80
2018-06-12T15:54:42.226Z,17.90
2018-06-12T15:57:12.056Z,17.90
2018-06-12T15:59:41.226Z,17.90
2018-06-12T16:02:11.096Z,17.80
2018-06-12T16:04:40.173Z,17.90
2018-06-12T16:07:09.354Z,17.70
2018-06-12T16:09:39.535Z,17.60
2018-06-12T16:12:08.823Z,17.60
2018-06-12T16:15:00.289Z,17.40
2018-06-12T16:17:29.530Z,17.30
2018-06-12T16:20:01.590Z,17.30
2018-06-12T16:25:45.772Z,17.40
2018-06-12T16:28:15.257Z,17.30
2018-06-12T16:30:44.425Z,17.30
2018-06-12T16:33:13.744Z,17.10
2018-06-12T16:35:43.906Z,17.10
2018-06-12T16:43:11.258Z,17.00
2018-06-12T16:45:40.388Z,16.90
2018-06-12T16:48:09.469Z,16.80
2018-06-12T16:50:38.682Z,16.70
2018-06-12T16:53:08.821Z,16.60
2018-06-12T16:55:38.164Z,16.60
2018-06-12T16:58:07.440Z,16.60
2018-06-12T17:00:36.752Z,16.60
2018-06-12T17:03:06.029Z,16.60
2018-06-12T17:05:35.351Z,16.50
2018-06-12T17:08:05.469Z,16.40
2018-06-12T17:10:35.090Z,16.40
2018-06-12T17:13:04.413Z,16.40
2018-06-12T17:15:33.720Z,16.50
2018-06-12T17:20:32.003Z,16.60
2018-06-12T17:23:01.205Z,16.60
2018-06-12T17:25:30.395Z,16.60
2018-06-12T17:27:59.501Z,16.50
2018-06-12T17:30:28.663Z,16.50
2018-06-12T17:32:58.382Z,16.50
2018-06-12T17:35:27.716Z,16.40
2018-06-12T17:37:56.855Z,16.30
2018-06-12T17:43:12.117Z,16.20
2018-06-12T17:45:41.331Z,16.20
2018-06-12T17:48:10.594Z,16.20
2018-06-12T17:50:39.830Z,16.20
2018-06-12T17:53:08.978Z,16.20
2018-06-12T17:55:38.292Z,16.20
2018-06-12T17:58:07.609Z,16.10
2018-06-12T18:00:36.988Z,16.10
2018-06-12T18:03:06.260Z,16.10
2018-06-12T18:05:35.352Z,16.10
2018-06-12T18:08:04.469Z,16.20
2018-06-12T18:10:34.058Z,16.20
2018-06-12T18:13:03.256Z,16.30
2018-06-12T18:15:32.846Z,16.30
2018-06-12T18:18:02.114Z,16.20
2018-06-12T18:20:31.268Z,16.10
2018-06-12T18:23:00.447Z,16.10
2018-06-12T18:25:29.557Z,16.10
2018-06-12T18:27:58.817Z,16.00
2018-06-12T18:30:28.411Z,15.90
2018-06-12T18:32:57.678Z,15.90
2018-06-12T18:35:26.946Z,15.80
2018-06-12T18:37:56.311Z,15.80
2018-06-12T18:40:26.016Z,15.70
2018-06-12T18:42:55.265Z,15.80
2018-06-12T18:45:24.526Z,15.80
2018-06-12T18:47:54.046Z,15.70
2018-06-12T18:50:23.403Z,15.60
2018-06-12T18:52:53.284Z,15.70
2018-06-12T18:55:22.593Z,15.80
2018-06-12T18:57:54.671Z,15.90
2018-06-12T19:00:24.680Z,15.90
2018-06-12T19:02:54.953Z,15.80
2018-06-12T19:05:24.758Z,15.80
2018-06-12T19:08:04.670Z,15.80
2018-06-12T19:10:37.201Z,15.90
2018-06-12T19:13:06.842Z,15.80
2018-06-12T19:15:36.046Z,15.80
2018-06-12T19:18:05.365Z,15.90
2018-06-12T19:20:34.614Z,15.90
2018-06-12T19:23:03.901Z,15.90
2018-06-12T19:25:33.151Z,15.80
2018-06-12T19:28:02.999Z,15.80
2018-06-12T19:30:32.120Z,15.80
2018-06-12T19:33:09.263Z,15.70
2018-06-12T19:35:38.736Z,15.70
2018-06-12T19:38:07.896Z,15.70
2018-06-12T19:40:37.070Z,15.70
2018-06-12T19:43:06.416Z,15.70
2018-06-12T19:45:35.747Z,15.80
2018-06-12T19:48:05.279Z,15.70
2018-06-12T19:50:35.641Z,15.70
2018-06-12T19:53:05.029Z,15.70
2018-06-12T19:55:34.245Z,15.70
2018-06-12T19:58:03.680Z,15.60
2018-06-12T20:00:33.173Z,15.60
2018-06-12T20:03:02.751Z,15.50
2018-06-12T20:05:32.061Z,15.50
2018-06-12T20:08:01.584Z,15.50
2018-06-12T20:10:31.027Z,15.50
2018-06-12T20:13:00.435Z,15.50
2018-06-12T20:15:29.548Z,15.50
2018-06-12T20:17:58.672Z,15.40
2018-06-12T20:20:28.421Z,15.50
2018-06-12T20:22:57.561Z,15.50
2018-06-12T20:25:26.744Z,15.50
2018-06-12T20:27:55.889Z,15.50
2018-06-12T20:30:25.002Z,15.50
2018-06-12T20:32:54.306Z,15.50
2018-06-12T20:35:23.458Z,15.40
2018-06-12T20:37:52.616Z,15.40
2018-06-12T20:40:21.928Z,15.40
2018-06-12T20:42:51.191Z,15.40
2018-06-12T20:45:20.255Z,15.40
2018-06-12T20:47:49.385Z,15.40
2018-06-12T20:50:18.687Z,15.40
2018-06-12T20:52:47.778Z,15.30
2018-06-12T20:57:46.606Z,15.40
2018-06-12T21:02:45.837Z,15.30
2018-06-12T21:07:44.008Z,15.30
2018-06-12T21:10:13.741Z,15.30
2018-06-12T21:15:12.055Z,15.30
2018-06-12T21:17:41.404Z,15.30
2018-06-12T21:20:10.500Z,15.30
2018-06-12T21:22:40.651Z,15.30
2018-06-12T21:25:10.480Z,15.40
2018-06-12T21:27:39.762Z,15.30
2018-06-12T21:30:08.870Z,15.10
2018-06-12T21:32:38.053Z,15.10
2018-06-12T21:37:36.156Z,14.80
2018-06-12T21:40:05.306Z,14.70
2018-06-12T21:42:34.496Z,14.70
2018-06-12T21:45:03.791Z,14.60
2018-06-12T21:47:32.938Z,14.50
2018-06-12T21:50:02.098Z,14.50
2018-06-12T21:52:31.229Z,14.50
2018-06-12T21:55:00.485Z,14.40
2018-06-12T21:57:29.585Z,14.30
2018-06-12T21:59:58.706Z,14.40
2018-06-12T22:02:28.012Z,14.30
2018-06-12T22:04:57.265Z,14.30
2018-06-12T22:07:26.512Z,14.30
2018-06-12T22:09:55.748Z,14.30
2018-06-12T22:12:24.934Z,14.40
2018-06-12T22:14:54.689Z,14.40
2018-06-12T22:17:23.873Z,14.40
2018-06-12T22:19:53.127Z,14.40
2018-06-12T22:22:22.318Z,14.40
2018-06-12T22:24:52.221Z,14.40
2018-06-12T22:27:21.429Z,14.40
2018-06-12T22:29:50.524Z,14.40
2018-06-12T22:32:19.698Z,14.40
2018-06-12T22:34:48.944Z,14.30
2018-06-12T22:37:21.041Z,14.40
2018-06-12T22:39:50.218Z,14.30
2018-06-12T22:42:19.688Z,14.00
2018-06-12T22:44:49.907Z,13.60
2018-06-12T22:47:19.061Z,13.60
2018-06-12T22:49:50.541Z,13.60
2018-06-12T22:52:19.873Z,13.60
2018-06-12T22:54:49.135Z,13.60
2018-06-12T22:57:18.271Z,13.50
2018-06-12T22:59:47.451Z,13.50
2018-06-12T23:02:16.619Z,13.40
2018-06-12T23:04:45.814Z,13.30
2018-06-12T23:07:15.147Z,13.30
2018-06-12T23:09:44.447Z,13.30
2018-06-12T23:12:13.757Z,13.30
2018-06-12T23:14:42.929Z,13.20
2018-06-12T23:17:12.397Z,13.30
2018-06-12T23:19:59.036Z,13.30
2018-06-12T23:22:28.234Z,13.20
2018-06-12T23:24:57.457Z,13.30
2018-06-12T23:27:26.615Z,13.30
2018-06-12T23:29:55.901Z,13.40
2018-06-12T23:32:25.263Z,13.50
2018-06-12T23:34:54.414Z,13.50
2018-06-12T23:37:25.715Z,13.50
2018-06-12T23:42:24.416Z,13.50
2018-06-12T23:44:54.247Z,13.60
2018-06-12T23:47:25.984Z,13.70
2018-06-12T23:49:55.108Z,13.70
2018-06-12T23:52:24.266Z,13.60
2018-06-12T23:54:53.456Z,13.70
2018-06-12T23:57:23.837Z,13.80
2018-06-12T23:59:53.049Z,13.80
